Time;durP1;ratioP1;P1;durP2;ratioP2;P2;SDS_P1;SDS_P2;PMS_P1;PMS_P2;Temp;Humidity;BMP_temperature;BMP_pressure;BME280_temperature;BME280_humidity;BME280_pressure;Samples;Min_cycle;Max_cycle;Signal;HPM_P1;HPM_P2
2023/09/16 00:01:28;;;;;;;0.05;0.05;;;;;;;21.24;60.34;100086.03;5289809;26;20151;-93
2023/09/16 00:04:14;;;;;;;0.08;0.08;;;;;;;21.21;60.35;100091.53;5290413;26;20091;-92
2023/09/16 00:06:44;;;;;;;0.00;0.00;;;;;;;21.18;60.35;100084.66;5308038;26;20064;-94
2023/09/16 00:09:14;;;;;;;0.03;0.03;;;;;;;21.00;60.33;100086.78;5308021;26;20063;-92
2023/09/16 00:11:40;;;;;;;0.00;0.00;;;;;;;20.90;60.33;100098.13;5286632;27;20045;-93
2023/09/16 00:14:06;;;;;;;1.33;0.68;;;;;;;20.91;60.33;100092.72;5267822;27;20080;-94
2023/09/16 00:17:32;;;;;;;0.00;0.00;;;;;;;20.85;60.33;100090.50;5267370;27;20113;-94
2023/09/16 00:20:04;;;;;;;0.10;0.10;;;;;;;20.74;60.32;100096.53;5269423;27;20044;-93
2023/09/16 00:22:32;;;;;;;0.47;0.25;;;;;;;20.64;60.32;100103.41;5268113;27;20111;-92
2023/09/16 00:24:58;;;;;;;0.00;0.00;;;;;;;20.54;60.30;100099.69;5268409;27;20076;-92
2023/09/16 00:27:26;;;;;;;0.45;0.20;;;;;;;20.48;60.31;100108.03;5268305;27;20056;-94
2023/09/16 00:29:52;;;;;;;0.10;0.10;;;;;;;20.46;60.31;100102.84;5267857;27;20052;-94
2023/09/16 00:32:22;;;;;;;1.23;0.13;;;;;;;20.41;60.31;100099.66;5267972;27;20070;-94
2023/09/16 00:34:50;;;;;;;0.00;0.00;;;;;;;20.51;60.31;100102.53;5286104;27;20081;-94
2023/09/16 00:37:16;;;;;;;0.10;0.05;;;;;;;20.52;60.31;100101.56;5269462;27;20421;-91
2023/09/16 00:39:41;;;;;;;0.98;0.90;;;;;;;20.51;60.31;100102.53;5286991;27;20062;-90
2023/09/16 00:42:10;;;;;;;0.00;0.00;;;;;;;20.69;60.32;100103.09;5270673;27;20037;-90
2023/09/16 00:44:36;;;;;;;0.00;0.00;;;;;;;20.45;60.30;100101.16;5276350;27;20079;-91
2023/09/16 00:47:01;;;;;;;0.10;0.10;;;;;;;20.44;60.30;100098.63;5286018;27;20156;-91
2023/09/16 00:49:30;;;;;;;0.10;0.10;;;;;;;20.42;60.30;100096.06;5267055;27;20067;-93
2023/09/16 00:51:56;;;;;;;1.45;1.08;;;;;;;20.37;60.30;100095.50;5267637;27;20075;-95
2023/09/16 00:54:22;;;;;;;0.35;0.30;;;;;;;20.38;60.29;100091.91;5284840;27;20460;-94
2023/09/16 00:56:48;;;;;;;0.52;0.52;;;;;;;20.65;60.31;100096.31;5266952;27;20060;-92
2023/09/16 00:59:13;;;;;;;0.13;0.13;;;;;;;20.48;60.31;100094.81;5285052;27;20067;-91
2023/09/16 01:01:39;;;;;;;0.20;0.20;;;;;;;20.44;60.30;100094.16;5285459;27;20075;-92
2023/09/16 01:04:07;;;;;;;0.93;0.60;;;;;;;20.39;60.29;100098.91;5266498;27;20075;-92
2023/09/16 01:06:32;;;;;;;0.00;0.00;;;;;;;20.42;60.30;100095.22;5284772;27;20107;-92
2023/09/16 01:08:58;;;;;;;0.00;0.00;;;;;;;20.41;60.30;100093.53;5284630;27;20357;-93
2023/09/16 01:11:27;;;;;;;0.00;0.00;;;;;;;20.34;60.30;100100.12;5266690;27;20340;-90
2023/09/16 01:13:56;;;;;;;0.00;0.00;;;;;;;20.35;60.30;100101.84;5284530;27;20057;-91
2023/09/16 01:16:39;;;;;;;0.00;0.00;;;;;;;20.28;60.29;100095.25;5266775;27;20070;-91
2023/09/16 01:19:16;;;;;;;1.65;1.37;;;;;;;20.48;60.31;100092.16;5303659;27;20053;-91
2023/09/16 01:21:42;;;;;;;0.22;0.22;;;;;;;20.44;60.30;100093.31;5266299;27;20060;-90
2023/09/16 01:24:24;;;;;;;0.00;0.00;;;;;;;20.47;60.31;100098.41;5284750;27;20071;-91
2023/09/16 01:26:53;;;;;;;0.10;0.10;;;;;;;20.42;60.31;100087.28;5267161;27;20065;-92
2023/09/16 01:29:20;;;;;;;0.15;0.15;;;;;;;20.44;60.30;100093.31;5267535;27;20470;-92
2023/09/16 01:31:45;;;;;;;0.30;0.30;;;;;;;20.40;60.30;100097.97;5267851;27;20044;-93
2023/09/16 01:34:41;;;;;;;0.22;0.22;;;;;;;20.43;60.30;100095.13;5267848;27;20393;-91
2023/09/16 01:37:07;;;;;;;0.08;0.03;;;;;;;20.43;60.30;100092.47;5296882;27;20061;-93
2023/09/16 01:39:33;;;;;;;1.65;0.35;;;;;;;20.43;60.31;100099.56;5286347;27;20056;-91
2023/09/16 01:41:59;;;;;;;0.00;0.00;;;;;;;20.47;60.31;100088.66;5286913;27;20100;-92
2023/09/16 01:44:24;;;;;;;0.00;0.00;;;;;;;20.40;60.30;100089.16;5268462;27;20061;-92
2023/09/16 01:46:54;;;;;;;0.10;0.10;;;;;;;20.49;60.31;100089.41;5286627;27;20151;-91
2023/09/16 01:49:23;;;;;;;0.20;0.20;;;;;;;20.43;60.30;100095.13;5268036;27;20071;-92
2023/09/16 01:51:48;;;;;;;0.10;0.10;;;;;;;20.46;60.30;100096.72;5286339;27;20060;-92
2023/09/16 01:54:14;;;;;;;0.00;0.00;;;;;;;20.59;60.31;100094.09;5268450;27;20101;-92
2023/09/16 01:56:40;;;;;;;0.28;0.20;;;;;;;20.48;60.31;100092.16;5268908;27;20095;-93
2023/09/16 01:59:07;;;;;;;0.00;0.00;;;;;;;20.52;60.31;100093.66;5287515;27;20056;-92
2023/09/16 02:01:39;;;;;;;0.10;0.10;;;;;;;20.46;60.31;100094.91;5305842;27;20116;-92
2023/09/16 02:04:05;;;;;;;3.00;0.28;;;;;;;20.37;60.29;100099.94;5306653;27;20087;-93
2023/09/16 02:06:37;;;;;;;0.10;0.10;;;;;;;20.43;60.30;100097.78;5275505;26;20025;-92
2023/09/16 02:09:03;;;;;;;0.15;0.15;;;;;;;20.47;60.31;100098.41;5278396;27;20130;-93
2023/09/16 02:11:30;;;;;;;1.27;0.93;;;;;;;20.44;60.30;100098.63;5269288;27;20078;-93
2023/09/16 02:13:58;;;;;;;1.60;0.75;;;;;;;20.42;60.30;100103.16;5269215;27;20772;-92
2023/09/16 02:16:23;;;;;;;0.03;0.03;;;;;;;20.51;60.30;100097.25;5286685;27;20117;-92
2023/09/16 02:18:49;;;;;;;0.00;0.00;;;;;;;20.47;60.30;100099.25;5268745;27;20056;-92
2023/09/16 02:21:15;;;;;;;3.22;0.52;;;;;;;20.53;60.30;100109.41;5268282;27;20041;-93
2023/09/16 02:23:41;;;;;;;0.00;0.00;;;;;;;20.44;60.29;100099.47;5268101;27;20057;-93
2023/09/16 02:26:06;;;;;;;0.52;0.20;;;;;;;20.43;60.30;100091.63;5268116;27;20112;-92
2023/09/16 02:28:32;;;;;;;0.20;0.17;;;;;;;20.43;60.30;100091.63;5268155;27;20071;-92
2023/09/16 02:30:57;;;;;;;4.07;0.90;;;;;;;20.44;60.30;100093.31;5286108;27;20104;-91
2023/09/16 02:33:23;;;;;;;0.17;0.08;;;;;;;20.42;60.30;100095.22;5267763;27;20645;-91
2023/09/16 02:35:48;;;;;;;0.00;0.00;;;;;;;20.35;60.30;100097.41;5268035;27;20062;-93
2023/09/16 02:38:14;;;;;;;0.00;0.00;;;;;;;20.36;60.30;100091.16;5286212;27;20101;-92
2023/09/16 02:40:42;;;;;;;0.03;0.03;;;;;;;20.34;60.30;100094.84;5286584;27;20065;-93
2023/09/16 02:43:08;;;;;;;0.32;0.15;;;;;;;20.34;60.29;100094.84;5268300;27;20116;-91
2023/09/16 02:45:43;;;;;;;0.00;0.00;;;;;;;20.38;60.29;100094.56;5285609;27;20131;-92
2023/09/16 02:48:08;;;;;;;0.00;0.00;;;;;;;20.43;60.30;100091.63;5267806;27;20062;-92
2023/09/16 02:50:34;;;;;;;0.22;0.10;;;;;;;20.39;60.29;100090.97;5286016;27;20056;-93
2023/09/16 02:53:00;;;;;;;0.00;0.00;;;;;;;20.34;60.30;100100.12;5268768;27;20057;-93
2023/09/16 02:55:30;;;;;;;0.32;0.10;;;;;;;20.32;60.29;100094.94;5286842;27;20087;-93
2023/09/16 02:57:56;;;;;;;0.45;0.45;;;;;;;20.43;60.30;100091.63;5268706;27;20071;-95
2023/09/16 03:00:24;;;;;;;0.00;0.00;;;;;;;20.21;60.28;100090.38;5268630;27;20052;-94
2023/09/16 03:02:50;;;;;;;0.20;0.20;;;;;;;20.22;60.29;100094.72;5268190;27;20141;-93
2023/09/16 03:05:16;;;;;;;0.03;0.03;;;;;;;20.31;60.29;100093.25;5287467;27;20076;-94
2023/09/16 03:07:43;;;;;;;0.00;0.00;;;;;;;20.38;60.29;100091.06;5305159;27;21080;-94
2023/09/16 03:10:10;;;;;;;0.08;0.08;;;;;;;20.30;60.29;100090.72;5268835;27;20414;-94
2023/09/16 03:12:35;;;;;;;6.60;0.90;;;;;;;20.23;60.30;100091.13;5269202;27;20103;-95
2023/09/16 03:15:01;;;;;;;0.25;0.15;;;;;;;20.21;60.29;100090.38;5269117;27;20056;-94
2023/09/16 03:17:26;;;;;;;0.00;0.00;;;;;;;20.37;60.30;100084.09;5268535;27;20140;-93
2023/09/16 03:19:52;;;;;;;0.35;0.35;;;;;;;20.32;60.30;100094.94;5286766;27;20108;-92
2023/09/16 03:22:18;;;;;;;0.00;0.00;;;;;;;20.22;60.29;100093.88;5269172;27;20057;-93
2023/09/16 03:24:43;;;;;;;0.10;0.10;;;;;;;20.24;60.29;100091.97;5286434;27;20080;-92
2023/09/16 03:27:09;;;;;;;0.00;0.00;;;;;;;20.30;60.29;100096.00;5287997;27;20072;-92
2023/09/16 03:29:34;;;;;;;0.47;0.47;;;;;;;20.39;60.29;100092.75;5292653;27;20091;-93
2023/09/16 03:31:59;;;;;;;0.00;0.00;;;;;;;20.52;60.30;100097.13;5295226;27;20077;-93
2023/09/16 03:34:25;;;;;;;0.20;0.20;;;;;;;20.45;60.29;100093.22;5286821;27;20052;-91
2023/09/16 03:36:50;;;;;;;3.03;0.62;;;;;;;20.39;60.29;100098.91;5267325;27;20063;-92
2023/09/16 03:39:27;;;;;;;0.00;0.00;;;;;;;20.32;60.29;100102.03;5286199;27;20393;-95
2023/09/16 03:41:52;;;;;;;0.03;0.03;;;;;;;20.35;60.29;100100.06;5269911;27;20063;-93
2023/09/16 03:44:18;;;;;;;0.32;0.32;;;;;;;20.26;60.29;100105.09;5267118;27;20063;-93
2023/09/16 03:46:43;;;;;;;0.00;0.00;;;;;;;20.43;60.30;100096.91;5267588;27;20066;-92
2023/09/16 03:49:08;;;;;;;0.45;0.30;;;;;;;20.29;60.29;100095.16;5285334;27;20053;-93
2023/09/16 03:51:34;;;;;;;0.00;0.00;;;;;;;20.37;60.30;100087.59;5266531;27;20120;-91
2023/09/16 03:54:00;;;;;;;0.00;0.00;;;;;;;20.21;60.28;100098.31;5284753;27;20080;-93
2023/09/16 03:56:25;;;;;;;0.00;0.00;;;;;;;20.14;60.28;100094.41;5285315;27;20772;-94
2023/09/16 03:59:29;;;;;;;0.00;0.00;;;;;;;20.12;60.28;100095.44;5268163;27;20096;-94
2023/09/16 04:01:55;;;;;;;0.00;0.00;;;;;;;20.13;60.28;100092.69;5215752;27;20066;-91
2023/09/16 04:04:20;;;;;;;0.52;0.17;;;;;;;20.11;60.28;100093.72;5180350;27;20124;-91
2023/09/16 04:06:46;;;;;;;0.47;0.15;;;;;;;20.02;60.28;100096.97;5232386;27;20056;-94
2023/09/16 04:09:11;;;;;;;0.00;0.00;;;;;;;20.31;60.29;100095.06;5268102;27;20360;-93
2023/09/16 04:14:39;;;;;;;0.05;0.05;;;;;;;20.07;60.27;100092.25;5272887;27;20061;-95
2023/09/16 04:17:05;;;;;;;0.32;0.32;;;;;;;20.01;60.28;100084.72;5267805;27;20119;-93
2023/09/16 04:19:35;;;;;;;0.00;0.00;;;;;;;19.98;60.27;100084.94;5286534;27;20111;-94
2023/09/16 04:22:01;;;;;;;0.05;0.05;;;;;;;19.97;60.27;100088.50;5269305;27;20053;-94
2023/09/16 04:24:28;;;;;;;0.00;0.00;;;;;;;20.01;60.27;100093.50;5285382;27;20111;-94
2023/09/16 04:26:57;;;;;;;0.57;0.57;;;;;;;20.05;60.28;100091.50;5267940;27;20064;-93
2023/09/16 04:29:22;;;;;;;0.00;0.00;;;;;;;20.20;60.28;100095.78;5269446;27;20120;-93
2023/09/16 04:31:48;;;;;;;0.00;0.00;;;;;;;20.12;60.28;100098.09;5286489;27;20061;-93
2023/09/16 04:34:14;;;;;;;0.03;0.03;;;;;;;20.18;60.29;100103.81;5286555;27;20076;-94
2023/09/16 04:36:40;;;;;;;0.10;0.10;;;;;;;20.12;60.28;100108.66;5286650;27;20067;-92
2023/09/16 04:39:05;;;;;;;0.00;0.00;;;;;;;20.11;60.28;100114.87;5286735;27;20348;-93
2023/09/16 04:41:31;;;;;;;0.00;0.00;;;;;;;20.06;60.27;100114.31;5286966;27;20088;-93
2023/09/16 04:43:57;;;;;;;0.28;0.28;;;;;;;20.07;60.27;100113.38;5287492;27;20057;-93
2023/09/16 04:46:23;;;;;;;0.30;0.22;;;;;;;20.00;60.28;100110.28;5287687;27;20056;-93
2023/09/16 04:48:51;;;;;;;0.00;0.00;;;;;;;19.98;60.28;100109.56;5270656;27;20044;-93
2023/09/16 04:51:19;;;;;;;0.00;0.00;;;;;;;19.97;60.27;100109.66;5291278;27;20065;-94
2023/09/16 04:53:49;;;;;;;0.40;0.40;;;;;;;20.07;60.27;100108.09;5301211;27;20056;-93
2023/09/16 04:56:20;;;;;;;0.10;0.10;;;;;;;20.03;60.28;100114.53;5273790;27;20063;-93
2023/09/16 04:58:45;;;;;;;;;;;;;;;20.08;60.27;100112.44;5269330;27;20041;-92
2023/09/16 05:01:12;;;;;;;0.10;0.10;;;;;;;20.22;60.28;100112.38;5285890;27;19987;-93
2023/09/16 05:03:37;;;;;;;0.35;0.35;;;;;;;20.22;60.28;100123.81;5268428;27;20844;-94
2023/09/16 05:06:03;;;;;;;0.00;0.00;;;;;;;20.27;60.29;100115.56;5286263;27;20106;-93
2023/09/16 05:08:28;;;;;;;0.10;0.10;;;;;;;20.34;60.29;100118.63;5285486;27;20052;-93
2023/09/16 05:10:54;;;;;;;0.00;0.00;;;;;;;20.45;60.29;100118.81;5267318;27;20083;-93
2023/09/16 05:13:20;;;;;;;0.00;0.00;;;;;;;20.48;60.30;100119.44;5268138;27;20079;-93
2023/09/16 05:15:49;;;;;;;0.20;0.20;;;;;;;20.41;60.30;100118.19;5267822;27;20060;-93
2023/09/16 05:18:15;;;;;;;0.20;0.10;;;;;;;20.53;60.30;100108.56;5267905;27;20684;-94
2023/09/16 05:20:41;;;;;;;1.52;0.43;;;;;;;20.84;60.32;100120.56;5285877;27;20065;-93
2023/09/16 05:23:07;;;;;;;1.10;0.25;;;;;;;20.81;60.32;100108.37;5267633;27;20052;-93
2023/09/16 05:25:33;;;;;;;0.70;0.43;;;;;;;21.04;60.33;100114.72;5304219;27;20083;-93
2023/09/16 05:27:58;;;;;;;0.28;0.28;;;;;;;21.09;60.33;100117.91;5285550;27;20069;-93
2023/09/16 05:30:24;;;;;;;0.08;0.08;;;;;;;21.14;60.33;100115.78;5267649;27;20061;-94
2023/09/16 05:32:49;;;;;;;0.15;0.15;;;;;;;21.11;60.33;100125.75;5267727;27;20446;-92
2023/09/16 05:35:15;;;;;;;0.80;0.60;;;;;;;21.08;60.33;100123.31;5269435;27;20079;-93
2023/09/16 05:37:42;;;;;;;0.20;0.20;;;;;;;21.18;60.34;100115.56;5267904;27;20041;-94
2023/09/16 05:40:08;;;;;;;0.00;0.00;;;;;;;21.05;60.33;100127.00;5286060;27;20084;-93
2023/09/16 05:42:35;;;;;;;0.00;0.00;;;;;;;21.23;60.33;100124.03;5267894;27;20598;-93
2023/09/16 05:45:03;;;;;;;0.25;0.25;;;;;;;21.14;60.33;100121.09;5285893;27;20061;-94
2023/09/16 05:47:29;;;;;;;17.73;0.32;;;;;;;21.27;60.34;100117.59;5267522;27;20067;-93
2023/09/16 05:49:55;;;;;;;0.15;0.15;;;;;;;21.37;60.35;100114.22;5304822;27;20028;-94
2023/09/16 05:52:21;;;;;;;1.02;0.20;;;;;;;21.21;60.33;100113.56;5268134;27;20313;-94
2023/09/16 05:54:48;;;;;;;0.40;0.35;;;;;;;21.31;60.34;100117.31;5267677;27;20103;-95
2023/09/16 05:57:17;;;;;;;0.55;0.55;;;;;;;21.44;60.35;100127.84;5287659;27;20075;-95
2023/09/16 05:59:42;;;;;;;0.25;0.20;;;;;;;21.32;60.34;100123.44;5268026;27;20060;-94
2023/09/16 06:02:08;;;;;;;0.30;0.22;;;;;;;21.62;60.35;100121.25;5268161;27;20078;-94
2023/09/16 06:04:33;;;;;;;0.15;0.15;;;;;;;21.83;60.37;100112.72;5268487;27;20430;-96
2023/09/16 06:06:59;;;;;;;0.28;0.28;;;;;;;21.75;60.37;100124.69;5268989;27;20116;-94
2023/09/16 06:09:24;;;;;;;0.13;0.13;;;;;;;21.73;60.36;100129.25;5286821;27;20098;-92
2023/09/16 06:11:50;;;;;;;0.15;0.10;;;;;;;21.82;60.37;100125.13;5269341;27;20115;-93
2023/09/16 06:14:18;;;;;;;0.75;0.30;;;;;;;22.02;60.37;100121.00;5291992;27;20080;-93
2023/09/16 06:16:44;;;;;;;0.30;0.30;;;;;;;22.22;60.39;100119.53;5280627;27;20033;-94
2023/09/16 06:19:09;;;;;;;0.90;0.40;;;;;;;22.28;60.40;100124.41;5289081;27;20078;-93
2023/09/16 06:21:41;;;;;;;0.35;0.35;;;;;;;22.25;60.40;100120.19;5269965;27;20068;-93
2023/09/16 06:24:06;;;;;;;5.47;4.97;;;;;;;22.37;60.40;100118.41;5287235;27;20075;-94
2023/09/16 06:26:32;;;;;;;8.85;7.95;;;;;;;22.47;60.40;100113.25;5268702;27;20057;-93
2023/09/16 06:29:00;;;;;;;1.27;1.20;;;;;;;22.82;60.42;100105.31;5286773;27;20332;-93
2023/09/16 06:31:28;;;;;;;0.50;0.50;;;;;;;22.93;60.43;100105.31;5286686;27;20048;-94
2023/09/16 06:33:55;;;;;;;0.00;0.00;;;;;;;22.99;60.43;100107.50;5268003;27;20052;-94
2023/09/16 06:36:20;;;;;;;0.10;0.10;;;;;;;23.16;60.43;100099.03;5268687;27;20622;-93
2023/09/16 06:38:47;;;;;;;0.30;0.30;;;;;;;23.22;60.44;100095.91;5288512;27;20076;-94
2023/09/16 06:41:19;;;;;;;0.35;0.35;;;;;;;23.18;60.44;100101.56;5269412;27;20658;-94
2023/09/16 06:43:47;;;;;;;0.17;0.17;;;;;;;23.35;60.44;100105.56;5286669;27;20173;-94
2023/09/16 06:46:13;;;;;;;0.00;0.00;;;;;;;23.03;60.42;100111.59;5268146;27;20410;-93
2023/09/16 06:48:41;;;;;;;0.43;0.40;;;;;;;23.26;60.43;100101.84;5268598;27;20057;-94
2023/09/16 06:51:06;;;;;;;0.25;0.25;;;;;;;23.47;60.45;100107.25;5269746;27;20131;-94
2023/09/16 06:53:32;;;;;;;0.05;0.05;;;;;;;23.58;60.46;100110.75;5269750;27;20116;-94
2023/09/16 06:55:58;;;;;;;0.00;0.00;;;;;;;23.69;60.47;100101.94;5269503;27;20083;-95
2023/09/16 06:58:23;;;;;;;0.03;0.03;;;;;;;23.91;60.48;100108.19;5267935;27;20118;-94
2023/09/16 07:00:55;;;;;;;0.00;0.00;;;;;;;24.01;60.48;100106.44;5267978;27;20060;-94
2023/09/16 07:03:20;;;;;;;0.35;0.35;;;;;;;24.09;60.48;100107.47;5267962;27;20056;-94
2023/09/16 07:05:46;;;;;;;0.13;0.13;;;;;;;24.16;60.49;100107.84;5304279;27;20384;-94
2023/09/16 07:08:13;;;;;;;0.03;0.03;;;;;;;24.27;60.49;100113.09;5268508;27;20478;-96
2023/09/16 07:10:38;;;;;;;0.20;0.20;;;;;;;24.51;60.50;100115.56;5267904;27;20033;-94
2023/09/16 07:13:04;;;;;;;0.00;0.00;;;;;;;24.80;60.52;100107.75;5286928;27;20082;-94
2023/09/16 07:15:55;;;;;;;0.10;0.00;;;;;;;24.94;60.53;100114.56;5268277;27;20053;-94
2023/09/16 07:18:21;;;;;;;0.08;0.08;;;;;;;24.93;60.53;100119.06;5286441;27;20123;-93
2023/09/16 07:20:50;;;;;;;0.50;0.40;;;;;;;24.77;60.52;100108.88;5268124;27;20302;-94
2023/09/16 07:23:16;;;;;;;0.00;0.00;;;;;;;24.71;60.52;100117.38;5268619;27;20075;-93
2023/09/16 07:25:41;;;;;;;0.47;0.35;;;;;;;24.79;60.53;100116.72;5269148;27;20061;-94
2023/09/16 07:28:11;;;;;;;0.70;0.70;;;;;;;24.75;60.53;100117.97;5287306;27;20064;-94
2023/09/16 07:30:45;;;;;;;0.20;0.20;;;;;;;24.78;60.52;100113.22;5269273;27;20131;-94
2023/09/16 07:33:15;;;;;;;0.45;0.28;;;;;;;24.68;60.51;100116.81;5269007;27;20024;-94
2023/09/16 07:36:06;;;;;;;0.17;0.10;;;;;;;24.76;60.53;100123.16;5271276;27;20076;-95
2023/09/16 07:38:32;;;;;;;0.60;0.50;;;;;;;24.74;60.52;100116.28;5304423;26;20029;-93
2023/09/16 07:40:59;;;;;;;0.00;0.00;;;;;;;24.45;60.51;100126.72;5269134;27;20074;-94
2023/09/16 07:43:25;;;;;;;0.45;0.25;;;;;;;24.37;60.51;100126.50;5286262;27;20052;-94
2023/09/16 07:45:51;;;;;;;0.00;0.00;;;;;;;24.42;60.50;100119.00;5267943;27;20106;-93
2023/09/16 07:48:19;;;;;;;1.98;0.50;;;;;;;24.51;60.51;100123.53;5268164;27;20079;-94
2023/09/16 07:50:45;;;;;;;0.50;0.32;;;;;;;24.63;60.52;100111.87;5268127;27;20069;-94
2023/09/16 07:53:29;;;;;;;1.23;0.88;;;;;;;24.74;60.52;100108.28;5267418;27;20074;-94
2023/09/16 07:56:13;;;;;;;0.55;0.35;;;;;;;24.88;60.53;100112.44;5267359;27;20064;-94
2023/09/16 07:58:38;;;;;;;0.00;0.00;;;;;;;25.02;60.54;100104.97;5267356;27;20072;-93
2023/09/16 08:01:03;;;;;;;0.25;0.22;;;;;;;25.15;60.55;100104.75;5285980;27;20096;-93
2023/09/16 08:03:57;;;;;;;2.20;0.47;;;;;;;25.24;60.55;100100.44;5267739;27;20569;-94
2023/09/16 08:06:26;;;;;;;0.37;0.37;;;;;;;25.34;60.55;100104.00;5293448;27;20060;-94
2023/09/16 08:09:10;;;;;;;0.50;0.20;;;;;;;25.30;60.56;100106.06;5268351;27;20068;-94
2023/09/16 08:11:39;;;;;;;0.08;0.03;;;;;;;25.43;60.56;100100.53;5269389;27;20033;-94
2023/09/16 08:14:04;;;;;;;0.57;0.25;;;;;;;25.38;60.56;100092.94;5267677;27;20471;-94
2023/09/16 08:16:33;;;;;;;0.00;0.00;;;;;;;25.62;60.57;100099.72;5268199;27;20041;-94
2023/09/16 08:19:42;;;;;;;;;;;;;;;;;;;;;
2023/09/16 08:25:45;;;;;;;1.35;0.35;;;;;;;25.89;60.58;100113.28;5267653;27;20056;-95
2023/09/16 08:28:13;;;;;;;1.50;0.75;;;;;;;25.58;60.57;100117.84;5294510;27;20070;-95
2023/09/16 08:30:38;;;;;;;0.20;0.20;;;;;;;25.41;60.56;100115.81;5268054;27;20060;-94
2023/09/16 08:33:09;;;;;;;0.00;0.00;;;;;;;25.04;60.54;100121.66;5267760;27;20087;-93
2023/09/16 08:35:51;;;;;;;;;;;;;;;25.21;60.54;100117.53;5269173;27;20090;-94
2023/09/16 08:39:23;;;;;;;;;;;;;;;;;;;;;
2023/09/16 08:45:18;;;;;;;0.10;0.10;;;;;;;25.65;60.58;100112.78;5191224;27;20061;-94
2023/09/16 08:58:45;;;;;;;;;;;;;;;;;;;;;
2023/09/16 09:01:52;;;;;;;;;;;;;;;;;;;;;
2023/09/16 09:04:59;;;;;;;;;;;;;;;;;;;;;
2023/09/16 09:08:00;;;;;;;0.20;0.15;;;;;;;26.48;60.62;100109.66;5168656;27;35782;-94
2023/09/16 09:11:04;;;;;;;;;;;;;;;;;;;;;
2023/09/16 09:18:07;;;;;;;0.77;0.43;;;;;;;26.64;60.63;100102.91;5224686;27;20068;-95
2023/09/16 09:24:43;;;;;;;1.87;1.35;;;;;;;26.71;60.62;100101.34;5108338;28;20084;-94
2023/09/16 09:28:03;;;;;;;;;;;;;;;;;;;;;
2023/09/16 09:44:42;;;;;;;0.10;0.10;;;;;;;27.51;60.67;100092.78;4936994;28;20214;-95
2023/09/16 09:51:06;;;;;;;0.22;0.22;;;;;;;27.49;60.66;100094.78;5001696;28;20160;-95
2023/09/16 09:54:40;;;;;;;;;;;;;;;;;;;;;
2023/09/16 09:57:49;;;;;;;;;;;;;;;;;;;;;
2023/09/16 10:01:24;;;;;;;;;;;;;;;;;;;;;
2023/09/16 10:10:06;;;;;;;0.93;0.37;;;;;;;27.40;60.66;100085.81;5049916;28;20082;-96
2023/09/16 10:17:07;;;;;;;;;;;;;;;;;;;;;
2023/09/16 10:39:50;;;;;;;0.20;0.20;;;;;;;27.74;60.68;100066.50;5007282;28;20437;-95
2023/09/16 10:54:45;;;;;;;;;;;;;;;;;;;;;
2023/09/16 11:01:49;;;;;;;;;;;;;;;;;;;;;
2023/09/16 11:04:19;;;;;;;0.30;0.25;;;;;;;28.86;60.74;100056.91;5018925;28;35259;-96
2023/09/16 11:06:53;;;;;;;0.22;0.22;;;;;;;29.00;60.74;100050.13;5017598;28;20687;-96
2023/09/16 11:09:22;;;;;;;0.52;0.20;;;;;;;29.08;60.74;100044.78;5104798;27;20103;-96
2023/09/16 11:11:50;;;;;;;0.45;0.43;;;;;;;29.19;60.76;100047.19;5220458;27;20053;-96
2023/09/16 11:14:15;;;;;;;0.13;0.13;;;;;;;29.23;60.75;100045.88;5220274;27;20054;-96
2023/09/16 11:16:44;;;;;;;0.20;0.20;;;;;;;29.18;60.75;100039.31;5219508;27;20132;-94
2023/09/16 11:19:14;;;;;;;0.10;0.10;;;;;;;29.34;60.76;100036.69;5219979;27;20054;-95
2023/09/16 11:21:40;;;;;;;;;;;;;;;29.56;60.76;100037.94;5219960;27;20076;-95
2023/09/16 11:24:06;;;;;;;0.30;0.30;;;;;;;29.68;60.77;100027.75;5219737;27;19992;-94
2023/09/16 11:26:38;;;;;;;0.17;0.17;;;;;;;29.54;60.77;100026.53;5241637;27;20539;-95
2023/09/16 11:29:17;;;;;;;0.10;0.10;;;;;;;29.70;60.78;100028.44;5267683;27;20065;-94
2023/09/16 11:31:42;;;;;;;0.10;0.10;;;;;;;29.53;60.77;100023.03;5303995;27;20029;-94
2023/09/16 11:34:08;;;;;;;0.25;0.20;;;;;;;29.22;60.75;100024.56;5267495;27;20080;-96
2023/09/16 11:36:35;;;;;;;0.43;0.43;;;;;;;29.10;60.76;100029.38;5268734;27;20029;-95
2023/09/16 11:39:06;;;;;;;1.50;0.55;;;;;;;29.24;60.77;100018.06;5286718;27;20438;-96
2023/09/16 11:41:31;;;;;;;0.00;0.00;;;;;;;29.06;60.75;100032.53;5305327;27;20056;-96
2023/09/16 11:43:57;;;;;;;3.20;0.90;;;;;;;29.11;60.75;100028.41;5289996;27;20054;-95
2023/09/16 11:46:22;;;;;;;0.40;0.20;;;;;;;29.21;60.75;100015.69;5299172;27;20090;-94
2023/09/16 11:48:52;;;;;;;0.10;0.10;;;;;;;29.42;60.77;100014.44;5286451;27;20120;-95
2023/09/16 11:51:17;;;;;;;4.00;0.37;;;;;;;29.60;60.77;100009.81;5285440;27;20060;-94
2023/09/16 11:53:43;;;;;;;0.60;0.60;;;;;;;29.50;60.78;100012.63;5285658;27;20089;-95
2023/09/16 11:56:09;;;;;;;0.22;0.22;;;;;;;29.51;60.78;100008.94;5267369;27;20375;-94
2023/09/16 11:58:34;;;;;;;0.00;0.00;;;;;;;29.20;60.76;100013.19;5267451;27;20167;-95
2023/09/16 12:01:01;;;;;;;1.45;0.85;;;;;;;29.29;60.76;100006.84;5267685;27;20069;-96
2023/09/16 12:03:26;;;;;;;0.22;0.17;;;;;;;29.36;60.76;100009.72;5267260;27;20096;-95
2023/09/16 12:05:52;;;;;;;0.93;0.50;;;;;;;29.36;60.76;100007.88;5285330;27;20115;-94
2023/09/16 12:08:18;;;;;;;0.00;0.00;;;;;;;29.29;60.76;100010.34;5284990;27;20076;-95
2023/09/16 12:10:43;;;;;;;0.10;0.10;;;;;;;29.31;60.77;100005.66;5285265;27;20073;-95
2023/09/16 12:13:09;;;;;;;0.08;0.08;;;;;;;29.40;60.77;99998.50;5285152;27;20087;-95
2023/09/16 12:15:34;;;;;;;0.30;0.30;;;;;;;29.41;60.77;99997.50;5285503;27;20088;-96
2023/09/16 12:18:00;;;;;;;0.10;0.10;;;;;;;29.39;60.77;99996.81;5267350;27;20060;-94
2023/09/16 12:20:25;;;;;;;0.22;0.15;;;;;;;29.49;60.78;99994.84;5285525;27;20417;-94
2023/09/16 12:22:52;;;;;;;0.28;0.28;;;;;;;29.64;60.79;100000.41;5285157;27;20099;-94
2023/09/16 12:25:17;;;;;;;1.08;0.85;;;;;;;29.69;60.78;99991.88;5266964;27;20072;-93
2023/09/16 12:27:43;;;;;;;1.45;0.65;;;;;;;29.94;60.79;99994.41;5267106;27;20402;-94
2023/09/16 12:30:08;;;;;;;1.02;0.57;;;;;;;30.01;60.80;99985.66;5267124;27;20115;-94
2023/09/16 12:32:34;;;;;;;4.62;0.68;;;;;;;29.85;60.78;99990.03;5266929;27;20091;-94
2023/09/16 12:35:04;;;;;;;0.45;0.45;;;;;;;29.89;60.80;99985.19;5285060;27;20069;-93
2023/09/16 12:37:29;;;;;;;1.50;0.95;;;;;;;30.18;60.80;99979.31;5285179;27;20162;-93
2023/09/16 12:39:55;;;;;;;1.17;0.40;;;;;;;30.18;60.80;99977.47;5284755;27;20354;-95
2023/09/16 12:42:20;;;;;;;0.82;0.32;;;;;;;30.20;60.81;99983.50;5267019;27;20067;-92
2023/09/16 12:44:46;;;;;;;0.70;0.35;;;;;;;30.24;60.81;99975.94;5284915;27;20099;-93
2023/09/16 12:47:11;;;;;;;0.32;0.32;;;;;;;30.34;60.81;99971.25;5285022;27;20079;-94
2023/09/16 12:49:37;;;;;;;0.30;0.30;;;;;;;30.13;60.81;99971.78;5285315;27;20072;-94
2023/09/16 12:52:02;;;;;;;1.10;1.08;;;;;;;30.03;60.80;99979.16;5285299;27;20060;-94
2023/09/16 12:54:31;;;;;;;0.35;0.30;;;;;;;30.22;60.81;99978.81;5267030;27;20084;-94
2023/09/16 12:56:57;;;;;;;0.03;0.03;;;;;;;30.33;60.81;99980.31;5286393;27;20080;-95
2023/09/16 12:59:22;;;;;;;1.87;0.88;;;;;;;29.98;60.80;99980.63;5286172;27;20057;-94
2023/09/16 13:01:48;;;;;;;0.25;0.25;;;;;;;29.91;60.79;99984.00;5267965;27;20078;-93
2023/09/16 13:04:14;;;;;;;1.15;0.70;;;;;;;30.06;60.80;99978.84;5287121;27;20083;-95
2023/09/16 13:06:39;;;;;;;0.10;0.10;;;;;;;29.83;60.80;99980.50;5289288;27;20068;-94
2023/09/16 13:09:06;;;;;;;0.22;0.22;;;;;;;29.81;60.79;99980.66;5281122;27;20056;-95
2023/09/16 13:11:31;;;;;;;0.30;0.15;;;;;;;29.89;60.80;99977.97;5267716;27;20048;-94
2023/09/16 13:13:57;;;;;;;0.08;0.08;;;;;;;29.96;60.79;99978.13;5267218;27;20103;-95
2023/09/16 13:16:27;;;;;;;0.65;0.60;;;;;;;29.49;60.78;99968.03;5266812;27;20056;-94
2023/09/16 13:18:52;;;;;;;0.15;0.15;;;;;;;29.59;60.78;99970.56;5266975;27;20751;-94
2023/09/16 13:21:18;;;;;;;0.40;0.35;;;;;;;29.56;60.78;99970.87;5266432;27;20064;-93
2023/09/16 13:23:53;;;;;;;0.45;0.45;;;;;;;29.50;60.77;99974.22;5267562;27;20124;-94
2023/09/16 13:26:20;;;;;;;0.75;0.40;;;;;;;29.59;60.77;99968.72;5285973;27;20064;-95
2023/09/16 13:29:00;;;;;;;0.73;0.30;;;;;;;29.51;60.78;99971.37;5268729;27;20109;-95
2023/09/16 13:31:25;;;;;;;0.73;0.73;;;;;;;29.50;60.78;99982.28;5267863;27;20625;-93